1881 NOT_NAMED (1881039S12084)


IBTrACS version v04r00. Visit IBTrACS website for data access.
Please direct all questions to the IBTrACS Q and A forum

Storm track - Intensity - Wind Radii - Intensity Data - Source Data - All data

Summary Information

Storm ID 1881039S12084
Start Feb 7 18Z
End Feb 17 06Z
ATCF IDs
Track status Best track data.

Storm track plot

Map of storm track

Intensity plots

No Intensity information for this storm


Radial wind information

No radial wind information for this storm


Position and Intensity Table

BASIN ISO_TIME_________ NATURE LAT LON
degrees north degrees east
SI 1881-02-07 18:00:00 NR -12.10 84.40
SI 21:00:00 NR -12.45 83.63
SI 1881-02-08 00:00:00 NR -12.79 82.90
SI 03:00:00 NR -13.07 82.24
SI 06:00:00 NR -13.30 81.70
SI 09:00:00 NR -13.45 81.30
SI 12:00:00 NR -13.55 80.99
SI 15:00:00 NR -13.62 80.75
SI 18:00:00 NR -13.70 80.50
SI 21:00:00 NR -13.82 80.18
SI 1881-02-09 00:00:00 NR -13.94 79.85
SI 03:00:00 NR -14.07 79.52
SI 06:00:00 NR -14.20 79.20
SI 09:00:00 NR -14.32 78.90
SI 12:00:00 NR -14.45 78.60
SI 15:00:00 NR -14.57 78.30
SI 18:00:00 NR -14.70 78.00
SI 21:00:00 NR -14.82 77.69
SI 1881-02-10 00:00:00 NR -14.94 77.37
SI 03:00:00 NR -15.07 77.04
SI 06:00:00 NR -15.20 76.70
SI 09:00:00 NR -15.35 76.33
SI 12:00:00 NR -15.50 75.94
SI 15:00:00 NR -15.65 75.56
SI 18:00:00 NR -15.80 75.20
SI 21:00:00 NR -15.93 74.88
SI 1881-02-11 00:00:00 NR -16.05 74.58
SI 03:00:00 NR -16.17 74.29
SI 06:00:00 NR -16.30 74.00
SI 09:00:00 NR -16.45 73.70
SI 12:00:00 NR -16.60 73.40
SI 15:00:00 NR -16.75 73.10
SI 18:00:00 NR -16.90 72.80
SI 21:00:00 NR -17.02 72.53
SI 1881-02-12 00:00:00 NR -17.13 72.25
SI 03:00:00 NR -17.25 71.95
SI 06:00:00 NR -17.40 71.60
SI 09:00:00 NR -17.60 71.18
SI 12:00:00 NR -17.82 70.71
SI 15:00:00 NR -18.06 70.21
SI 18:00:00 NR -18.30 69.70
SI 21:00:00 NR -18.53 69.19
SI 1881-02-13 00:00:00 NR -18.76 68.67
SI 03:00:00 NR -18.98 68.17
SI 06:00:00 NR -19.20 67.70
SI 09:00:00 NR -19.41 67.29
SI 12:00:00 NR -19.61 66.92
SI 15:00:00 NR -19.81 66.56
SI 18:00:00 NR -20.00 66.20
SI 21:00:00 NR -20.17 65.83
SI 1881-02-14 00:00:00 NR -20.34 65.44
SI 03:00:00 NR -20.51 65.04
SI 06:00:00 NR -20.70 64.60
SI 09:00:00 NR -20.91 64.10
SI 12:00:00 NR -21.14 63.57
SI 15:00:00 NR -21.37 63.03
SI 18:00:00 NR -21.60 62.50
SI 21:00:00 NR -21.83 61.99
SI 1881-02-15 00:00:00 NR -22.06 61.50
SI 03:00:00 NR -22.28 61.04
SI 06:00:00 NR -22.50 60.60
SI 09:00:00 NR -22.70 60.20
SI 12:00:00 NR -22.89 59.83
SI 15:00:00 NR -23.09 59.47
SI 18:00:00 NR -23.30 59.10
SI 21:00:00 NR -23.54 58.68
SI 1881-02-16 00:00:00 NR -23.79 58.24
SI 03:00:00 NR -24.05 57.81
SI 06:00:00 NR -24.30 57.40
SI 09:00:00 NR -24.53 57.03
SI 12:00:00 NR -24.76 56.68
SI 15:00:00 NR -24.98 56.34
SI 18:00:00 NR -25.20 56.00
SI 21:00:00 NR -25.42 55.64
SI 1881-02-17 00:00:00 NR -25.65 55.27
SI 03:00:00 NR -25.87 54.89
SI 06:00:00 NR -26.10 54.50

Source Information

Agency Information
USA
TOKYO
CMA
HKO
NEWDELHI
REUNION
BOM
NADI
WELLINGTON
DS824
TD9636 cons_worldwide_trop_cyclone_18710101-19891231-005:Line=1660
TD9635
NEUMANN
MLC

All available IBTrACS Data

SEASON BASIN SUBBASIN ISO_TIME_________ NATURE LAT LON DIST2LAND LANDFALL IFLAG USA SSHS TD9636 LAT TD9636 LON TD9636 STAGE STORM SPEED STORM DIR
Year degrees north degrees east km km 1 degrees north degrees east kts degrees
1881 SI MM 1881-02-07 18:00:00 NR -12.10 84.40 1979 1979 __________O___ -1 -12.10 84.40 7 17 245
1881 SI MM 21:00:00 NR -12.45 83.63 2076 2076 __________P___ -1 -12.45 83.63 7 16 245
1881 SI MM 1881-02-08 00:00:00 NR -12.79 82.90 2110 2109 __________P___ -1 -12.79 82.90 7 15 245
1881 SI MM 03:00:00 NR -13.07 82.24 2136 2135 __________P___ -1 -13.07 82.24 7 13 246
1881 SI MM 06:00:00 NR -13.30 81.70 2154 2153 __________O___ -1 -13.30 81.70 7 10 248
1881 SI MM 09:00:00 NR -13.45 81.30 2174 2173 __________P___ -1 -13.45 81.30 7 7 250
1881 SI MM 12:00:00 NR -13.55 80.99 2185 2184 __________P___ -1 -13.55 80.99 7 6 252
1881 SI MM 15:00:00 NR -13.62 80.75 2184 2184 __________P___ -1 -13.62 80.75 7 5 253
1881 SI MM 18:00:00 NR -13.70 80.50 2195 2195 __________O___ -1 -13.70 80.50 7 6 251
1881 SI MM 21:00:00 NR -13.82 80.18 2207 2207 __________P___ -1 -13.82 80.18 7 7 249
1881 SI MM 1881-02-09 00:00:00 NR -13.94 79.85 2220 2220 __________P___ -1 -13.94 79.85 7 7 248
1881 SI MM 03:00:00 NR -14.07 79.52 2243 2243 __________P___ -1 -14.07 79.52 7 7 248
1881 SI MM 06:00:00 NR -14.20 79.20 2257 2257 __________O___ -1 -14.20 79.20 7 7 247
1881 SI MM 09:00:00 NR -14.32 78.90 2270 2270 __________P___ -1 -14.32 78.90 7 6 247
1881 SI MM 12:00:00 NR -14.45 78.60 2284 2264 __________P___ -1 -14.45 78.60 7 6 246
1881 SI MM 15:00:00 NR -14.57 78.30 2264 2230 __________P___ -1 -14.57 78.30 7 6 247
1881 SI MM 18:00:00 NR -14.70 78.00 2230 2196 __________O___ -1 -14.70 78.00 7 6 247
1881 SI MM 21:00:00 NR -14.82 77.69 2196 2161 __________P___ -1 -14.82 77.69 7 7 248
1881 SI MM 1881-02-10 00:00:00 NR -14.94 77.37 2161 2124 __________P___ -1 -14.94 77.37 7 7 248
1881 SI MM 03:00:00 NR -15.07 77.04 2114 2079 __________P___ -1 -15.07 77.04 7 7 248
1881 SI MM 06:00:00 NR -15.20 76.70 2079 2035 __________O___ -1 -15.20 76.70 7 7 248
1881 SI MM 09:00:00 NR -15.35 76.33 2035 1998 __________P___ -1 -15.35 76.33 7 8 248
1881 SI MM 12:00:00 NR -15.50 75.94 1987 1953 __________P___ -1 -15.50 75.94 7 8 247
1881 SI MM 15:00:00 NR -15.65 75.56 1950 1906 __________P___ -1 -15.65 75.56 7 8 247
1881 SI MM 18:00:00 NR -15.80 75.20 1906 1872 __________O___ -1 -15.80 75.20 7 7 247
1881 SI MM 21:00:00 NR -15.93 74.88 1872 1838 __________P___ -1 -15.93 74.88 7 7 247
1881 SI MM 1881-02-11 00:00:00 NR -16.05 74.58 1838 1800 __________P___ -1 -16.05 74.58 7 6 247
1881 SI MM 03:00:00 NR -16.17 74.29 1800 1767 __________P___ -1 -16.17 74.29 7 6 246
1881 SI MM 06:00:00 NR -16.30 74.00 1767 1733 __________O___ -1 -16.30 74.00 7 6 244
1881 SI MM 09:00:00 NR -16.45 73.70 1733 1696 __________P___ -1 -16.45 73.70 7 7 242
1881 SI MM 12:00:00 NR -16.60 73.40 1696 1662 __________P___ -1 -16.60 73.40 7 7 242
1881 SI MM 15:00:00 NR -16.75 73.10 1659 1625 __________P___ -1 -16.75 73.10 7 6 242
1881 SI MM 18:00:00 NR -16.90 72.80 1625 1591 __________O___ -1 -16.90 72.80 7 6 244
1881 SI MM 21:00:00 NR -17.02 72.53 1591 1568 __________P___ -1 -17.02 72.53 7 6 247
1881 SI MM 1881-02-12 00:00:00 NR -17.13 72.25 1568 1534 __________P___ -1 -17.13 72.25 7 6 247
1881 SI MM 03:00:00 NR -17.25 71.95 1524 1487 __________P___ -1 -17.25 71.95 7 7 246
1881 SI MM 06:00:00 NR -17.40 71.60 1487 1440 __________O___ -1 -17.40 71.60 7 8 245
1881 SI MM 09:00:00 NR -17.60 71.18 1440 1384 __________P___ -1 -17.60 71.18 7 9 244
1881 SI MM 12:00:00 NR -17.82 70.71 1384 1327 __________P___ -1 -17.82 70.71 7 10 243
1881 SI MM 15:00:00 NR -18.06 70.21 1324 1268 __________P___ -1 -18.06 70.21 7 11 243
1881 SI MM 18:00:00 NR -18.30 69.70 1268 1212 __________O___ -1 -18.30 69.70 7 11 244
1881 SI MM 21:00:00 NR -18.53 69.19 1212 1156 __________P___ -1 -18.53 69.19 7 11 245
1881 SI MM 1881-02-13 00:00:00 NR -18.76 68.67 1154 1098 __________P___ -1 -18.76 68.67 7 11 245
1881 SI MM 03:00:00 NR -18.98 68.17 1098 1043 __________P___ -1 -18.98 68.17 7 10 244
1881 SI MM 06:00:00 NR -19.20 67.70 1043 998 __________O___ -1 -19.20 67.70 7 9 243
1881 SI MM 09:00:00 NR -19.41 67.29 998 954 __________P___ -1 -19.41 67.29 7 8 241
1881 SI MM 12:00:00 NR -19.61 66.92 954 920 __________P___ -1 -19.61 66.92 7 8 240
1881 SI MM 15:00:00 NR -19.81 66.56 920 877 __________P___ -1 -19.81 66.56 7 8 240
1881 SI MM 18:00:00 NR -20.00 66.20 877 834 __________O___ -1 -20.00 66.20 7 8 242
1881 SI MM 21:00:00 NR -20.17 65.83 834 802 __________P___ -1 -20.17 65.83 7 8 244
1881 SI MM 1881-02-14 00:00:00 NR -20.34 65.44 792 760 __________P___ -1 -20.34 65.44 7 8 245
1881 SI MM 03:00:00 NR -20.51 65.04 750 709 __________P___ -1 -20.51 65.04 7 9 246
1881 SI MM 06:00:00 NR -20.70 64.60 709 659 __________O___ -1 -20.70 64.60 7 10 246
1881 SI MM 09:00:00 NR -20.91 64.10 659 609 __________P___ -1 -20.91 64.10 7 11 246
1881 SI MM 12:00:00 NR -21.14 63.57 609 562 __________P___ -1 -21.14 63.57 7 11 245
1881 SI MM 15:00:00 NR -21.37 63.03 554 509 __________P___ -1 -21.37 63.03 7 11 245
1881 SI MM 18:00:00 NR -21.60 62.50 509 466 __________O___ -1 -21.60 62.50 7 11 244
1881 SI MM 21:00:00 NR -21.83 61.99 466 427 __________P___ -1 -21.83 61.99 7 10 244
1881 SI MM 1881-02-15 00:00:00 NR -22.06 61.50 432 400 __________P___ -1 -22.06 61.50 7 10 243
1881 SI MM 03:00:00 NR -22.28 61.04 396 374 __________P___ -1 -22.28 61.04 7 9 242
1881 SI MM 06:00:00 NR -22.50 60.60 374 356 __________O___ -1 -22.50 60.60 7 9 242
1881 SI MM 09:00:00 NR -22.70 60.20 356 343 __________P___ -1 -22.70 60.20 7 8 241
1881 SI MM 12:00:00 NR -22.89 59.83 345 338 __________P___ -1 -22.89 59.83 7 8 240
1881 SI MM 15:00:00 NR -23.09 59.47 344 339 __________P___ -1 -23.09 59.47 7 8 239
1881 SI MM 18:00:00 NR -23.30 59.10 344 340 __________O___ -1 -23.30 59.10 7 9 238
1881 SI MM 21:00:00 NR -23.54 58.68 350 350 __________P___ -1 -23.54 58.68 7 9 238
1881 SI MM 1881-02-16 00:00:00 NR -23.79 58.24 372 364 __________P___ -1 -23.79 58.24 7 9 237
1881 SI MM 03:00:00 NR -24.05 57.81 364 363 __________P___ -1 -24.05 57.81 7 9 237
1881 SI MM 06:00:00 NR -24.30 57.40 372 367 __________O___ -1 -24.30 57.40 7 9 236
1881 SI MM 09:00:00 NR -24.53 57.03 374 374 __________P___ -1 -24.53 57.03 7 8 235
1881 SI MM 12:00:00 NR -24.76 56.68 396 393 __________P___ -1 -24.76 56.68 7 8 234
1881 SI MM 15:00:00 NR -24.98 56.34 408 407 __________P___ -1 -24.98 56.34 7 8 234
1881 SI MM 18:00:00 NR -25.20 56.00 426 425 __________O___ -1 -25.20 56.00 7 8 235
1881 SI MM 21:00:00 NR -25.42 55.64 447 447 __________P___ -1 -25.42 55.64 7 8 236
1881 SI MM 1881-02-17 00:00:00 NR -25.65 55.27 470 470 __________P___ -1 -25.65 55.27 7 8 236
1881 SI MM 03:00:00 NR -25.87 54.89 507 507 __________P___ -1 -25.87 54.89 7 8 237
1881 SI MM 06:00:00 NR -26.10 54.50 537 __________O___ -1 -26.10 54.50 7 8 237